createdAt,value
2023-04-30T00:00:08.613Z,99036.56
2023-04-30T00:03:12.118Z,99035.41
2023-04-30T00:06:14.031Z,99037.06
2023-04-30T00:09:17.407Z,99045.91
2023-04-30T00:12:19.001Z,99048.59
2023-04-30T00:15:20.668Z,99050.44
2023-04-30T00:18:22.420Z,99050.56
2023-04-30T00:21:24.245Z,99051.47
2023-04-30T00:24:27.332Z,99049.75
2023-04-30T00:27:28.976Z,99064.72
2023-04-30T00:30:30.853Z,99066.41
2023-04-30T00:33:32.650Z,99071.78
2023-04-30T00:36:34.340Z,99066.50
2023-04-30T00:39:37.527Z,99066.41
2023-04-30T00:42:39.023Z,99068.19
2023-04-30T00:45:41.114Z,99068.22
2023-04-30T00:48:43.176Z,99063.88
2023-04-30T00:51:45.556Z,99059.53
2023-04-30T00:54:48.556Z,99072.72
2023-04-30T00:57:50.850Z,99077.16
2023-04-30T01:00:53.279Z,99066.59
2023-04-30T01:03:54.925Z,99068.28
2023-04-30T01:06:56.973Z,99075.31
2023-04-30T01:10:00.630Z,99072.66
2023-04-30T01:13:06.741Z,99078.16
2023-04-30T01:16:12.102Z,99074.66
2023-04-30T01:19:21.854Z,99078.22
2023-04-30T01:22:30.361Z,99077.44
2023-04-30T01:25:53.627Z,99082.03
2023-04-30T01:28:57.250Z,99079.50
2023-04-30T01:31:58.792Z,99080.47
2023-04-30T01:35:03.086Z,99083.16
2023-04-30T01:38:11.058Z,99085.88
2023-04-30T01:41:19.672Z,99084.16
2023-04-30T01:44:29.429Z,99087.75
2023-04-30T01:47:34.156Z,99086.88
2023-04-30T01:50:40.159Z,99083.41
2023-04-30T01:53:43.234Z,99094.06
2023-04-30T01:56:50.089Z,99091.53
2023-04-30T01:59:53.393Z,99088.09
2023-04-30T02:02:55.197Z,99091.63
2023-04-30T02:05:56.900Z,99089.06
2023-04-30T02:09:03.575Z,99091.78
2023-04-30T02:12:06.404Z,99096.22
2023-04-30T02:15:10.511Z,99106.06
2023-04-30T02:18:12.205Z,99094.66
2023-04-30T02:21:14.664Z,99100.91
2023-04-30T02:24:16.822Z,99101.03
2023-04-30T02:27:19.980Z,99104.56
2023-04-30T02:30:24.038Z,99103.72
2023-04-30T02:33:25.970Z,99109.03
2023-04-30T02:36:27.718Z,99112.50
2023-04-30T02:39:29.570Z,99102.94
2023-04-30T02:42:31.598Z,99113.53
2023-04-30T02:45:34.630Z,99110.00
2023-04-30T02:48:36.354Z,99113.66
2023-04-30T02:51:38.122Z,99115.41
2023-04-30T02:54:39.640Z,99126.00
2023-04-30T02:57:41.201Z,99122.50
2023-04-30T03:00:44.150Z,99123.34
2023-04-30T03:03:45.793Z,99126.00
2023-04-30T03:06:47.510Z,99120.75
2023-04-30T03:09:49.462Z,99110.38
2023-04-30T03:12:51.584Z,99113.13
2023-04-30T03:15:59.540Z,99113.22
2023-04-30T03:19:01.223Z,99115.09
2023-04-30T03:22:03.005Z,99126.63
2023-04-30T03:25:05.521Z,99129.31
2023-04-30T03:28:07.381Z,99123.03
2023-04-30T03:31:10.689Z,99125.66
2023-04-30T03:34:12.482Z,99136.28
2023-04-30T03:37:14.034Z,99136.31
2023-04-30T03:40:15.762Z,99129.38
2023-04-30T03:43:17.321Z,99125.91
2023-04-30T03:46:20.666Z,99125.94
2023-04-30T03:49:23.369Z,99129.56
2023-04-30T03:52:28.750Z,99125.25
2023-04-30T03:55:30.409Z,99134.03
2023-04-30T03:58:32.098Z,99136.56
2023-04-30T04:01:35.418Z,99137.44
2023-04-30T04:04:37.185Z,99140.97
2023-04-30T04:07:39.198Z,99139.34
2023-04-30T04:10:41.192Z,99140.25
2023-04-30T04:13:43.951Z,99132.38
2023-04-30T04:16:46.894Z,99132.34
2023-04-30T04:19:48.771Z,99134.06
2023-04-30T04:22:57.916Z,99132.28
2023-04-30T04:26:00.395Z,99137.50
2023-04-30T04:29:04.009Z,99146.34
2023-04-30T04:32:07.996Z,99146.28
2023-04-30T04:35:10.154Z,99147.13
2023-04-30T04:38:12.548Z,99145.34
2023-04-30T04:41:14.719Z,99149.69
2023-04-30T04:44:16.607Z,99147.91
2023-04-30T04:47:23.078Z,99152.28
2023-04-30T04:50:24.628Z,99152.28
2023-04-30T04:53:26.354Z,99154.00
2023-04-30T04:56:28.000Z,99159.16
2023-04-30T04:59:30.164Z,99165.19
2023-04-30T05:02:33.305Z,99160.69
2023-04-30T05:05:34.911Z,99157.94
2023-04-30T05:08:38.613Z,99166.56
2023-04-30T05:11:41.654Z,99162.88
2023-04-30T05:14:44.004Z,99163.63
2023-04-30T05:17:47.693Z,99168.81
2023-04-30T05:20:49.864Z,99165.16
2023-04-30T05:23:51.608Z,99171.19
2023-04-30T05:26:53.150Z,99169.44
2023-04-30T05:29:55.115Z,99166.81
2023-04-30T05:32:58.710Z,99170.16
2023-04-30T05:36:00.344Z,99169.97
2023-04-30T05:39:02.098Z,99165.34
2023-04-30T05:42:03.756Z,99173.97
2023-04-30T05:45:05.932Z,99179.94
2023-04-30T05:48:08.983Z,99180.63
2023-04-30T05:51:10.994Z,99183.19
2023-04-30T05:54:12.554Z,99183.06
2023-04-30T05:57:14.087Z,99182.06
2023-04-30T06:00:16.197Z,99174.84
2023-04-30T06:03:20.205Z,99171.09
2023-04-30T06:06:21.960Z,99181.59
2023-04-30T06:09:23.794Z,99179.75
2023-04-30T06:12:25.874Z,99189.28
2023-04-30T06:15:27.562Z,99190.81
2023-04-30T06:18:30.731Z,99187.03
2023-04-30T06:21:32.483Z,99190.50
2023-04-30T06:24:34.086Z,99187.72
2023-04-30T06:27:35.733Z,99195.53
2023-04-30T06:30:37.557Z,99189.22
2023-04-30T06:33:40.597Z,99191.91
2023-04-30T06:36:42.251Z,99190.91
2023-04-30T06:39:43.981Z,99190.81
2023-04-30T06:42:47.640Z,99192.47
2023-04-30T06:45:49.701Z,99199.19
2023-04-30T06:48:52.660Z,99201.00
2023-04-30T06:51:56.381Z,99202.59
2023-04-30T06:54:58.084Z,99200.13
2023-04-30T06:58:00.137Z,99209.72
2023-04-30T07:01:01.822Z,99205.25
2023-04-30T07:04:04.857Z,99206.84
2023-04-30T07:07:06.494Z,99209.13
2023-04-30T07:10:08.796Z,99210.84
2023-04-30T07:13:10.827Z,99211.69
2023-04-30T07:16:12.541Z,99211.38
2023-04-30T07:19:16.606Z,99208.19
2023-04-30T07:22:18.157Z,99214.28
2023-04-30T07:25:19.797Z,99217.59
2023-04-30T07:28:21.637Z,99218.31
2023-04-30T07:31:23.723Z,99219.00
2023-04-30T07:34:28.027Z,99212.56
2023-04-30T07:37:29.883Z,99216.66
2023-04-30T07:40:36.311Z,99221.72
2023-04-30T07:43:38.495Z,99220.94
2023-04-30T07:46:40.287Z,99219.75
2023-04-30T07:49:43.405Z,99209.31
2023-04-30T07:52:45.126Z,99207.75
2023-04-30T07:55:47.285Z,99212.38
2023-04-30T07:58:49.169Z,99217.50
2023-04-30T08:01:50.936Z,99213.53
2023-04-30T08:04:53.830Z,99215.44
2023-04-30T08:07:55.498Z,99208.44
2023-04-30T08:10:57.268Z,99212.69
2023-04-30T08:13:58.892Z,99217.13
2023-04-30T08:17:01.202Z,99217.03
2023-04-30T08:20:05.258Z,99211.16
2023-04-30T08:23:07.063Z,99219.75
2023-04-30T08:26:08.720Z,99212.28
2023-04-30T08:29:11.327Z,99221.94
2023-04-30T08:32:13.190Z,99214.38
2023-04-30T08:35:17.092Z,99215.88
2023-04-30T08:38:18.851Z,99219.78
2023-04-30T08:41:22.652Z,99206.25
2023-04-30T08:44:24.387Z,99213.63
2023-04-30T08:47:26.364Z,99211.06
2023-04-30T08:50:29.534Z,99217.34
2023-04-30T08:53:31.668Z,99213.38
2023-04-30T08:56:35.185Z,99223.59
2023-04-30T08:59:36.906Z,99218.94
2023-04-30T09:02:40.864Z,99217.66
2023-04-30T09:05:45.188Z,99216.09
2023-04-30T09:08:47.992Z,99207.88
2023-04-30T09:11:49.649Z,99202.16
2023-04-30T09:14:58.752Z,99203.16
2023-04-30T09:18:07.991Z,99200.97
2023-04-30T09:21:11.232Z,99195.63
2023-04-30T09:24:12.732Z,99190.47
2023-04-30T09:27:15.827Z,99196.91
2023-04-30T09:30:30.394Z,99200.59
2023-04-30T09:33:45.441Z,99195.31
2023-04-30T09:36:55.608Z,99196.72
2023-04-30T09:39:57.618Z,99195.63
2023-04-30T09:43:00.271Z,99197.16
2023-04-30T09:46:03.720Z,99195.03
2023-04-30T09:49:08.962Z,99195.75
2023-04-30T09:52:15.871Z,99201.50
2023-04-30T09:55:18.310Z,99200.47
2023-04-30T09:58:20.350Z,99192.34
2023-04-30T10:01:23.442Z,99195.34
2023-04-30T10:04:27.017Z,99194.25
2023-04-30T10:07:37.424Z,99190.00
2023-04-30T10:10:40.888Z,99191.53
2023-04-30T10:13:44.470Z,99188.81
2023-04-30T10:16:53.049Z,99192.28
2023-04-30T10:19:57.544Z,99185.16
2023-04-30T10:23:01.399Z,99177.06
2023-04-30T10:26:04.091Z,99178.25
2023-04-30T10:29:07.088Z,99170.00
2023-04-30T10:32:09.422Z,99161.16
2023-04-30T10:35:16.334Z,99164.09
2023-04-30T10:38:21.923Z,99172.00
2023-04-30T10:41:26.515Z,99164.28
2023-04-30T10:44:28.280Z,99156.69
2023-04-30T10:47:31.472Z,99162.47
2023-04-30T10:50:33.355Z,99150.56
2023-04-30T10:53:37.120Z,99146.25
2023-04-30T10:56:38.771Z,99140.81
2023-04-30T10:59:45.171Z,99144.13
2023-04-30T11:02:48.876Z,99143.84
2023-04-30T11:05:50.857Z,99136.75
2023-04-30T11:09:03.507Z,99135.50
2023-04-30T11:12:10.397Z,99142.50
2023-04-30T11:15:13.232Z,99135.03
2023-04-30T11:18:15.521Z,99139.06
2023-04-30T11:21:19.434Z,99133.63
2023-04-30T11:24:22.245Z,99140.44
2023-04-30T11:27:24.605Z,99137.75
2023-04-30T11:30:29.336Z,99136.47
2023-04-30T11:33:31.757Z,99134.88
2023-04-30T11:36:34.272Z,99129.59
2023-04-30T11:39:38.234Z,99133.28
2023-04-30T11:42:44.887Z,99120.56
2023-04-30T11:45:58.862Z,99115.63
2023-04-30T11:49:00.512Z,99116.50
2023-04-30T11:52:02.235Z,99118.69
2023-04-30T11:55:12.934Z,99117.31
2023-04-30T11:58:14.578Z,99109.69
2023-04-30T12:01:16.459Z,99114.16
2023-04-30T12:04:19.402Z,99117.03
2023-04-30T12:07:22.681Z,99115.88
2023-04-30T12:10:27.216Z,99116.53
2023-04-30T12:13:31.102Z,99103.03
2023-04-30T12:16:40.325Z,99102.63
2023-04-30T12:19:41.973Z,99104.97
2023-04-30T12:22:43.980Z,99097.00
2023-04-30T12:25:47.737Z,99098.72
2023-04-30T12:28:49.962Z,99097.88
2023-04-30T12:31:52.461Z,99091.63
2023-04-30T12:34:58.985Z,99095.34
2023-04-30T12:38:05.205Z,99097.09
2023-04-30T12:41:12.010Z,99101.97
2023-04-30T12:44:14.158Z,99087.47
2023-04-30T12:47:16.494Z,99092.50
2023-04-30T12:50:18.091Z,99093.19
2023-04-30T12:53:20.165Z,99083.75
2023-04-30T12:56:23.888Z,99074.03
2023-04-30T12:59:25.813Z,99076.31
2023-04-30T13:02:28.184Z,99079.66
2023-04-30T13:05:30.377Z,99068.97
2023-04-30T13:08:33.877Z,99072.84
2023-04-30T13:11:43.389Z,99064.97
2023-04-30T13:14:44.911Z,99059.25
2023-04-30T13:17:46.549Z,99066.38
2023-04-30T13:20:48.230Z,99054.81
2023-04-30T13:23:53.744Z,99044.81
2023-04-30T13:27:00.376Z,99043.13
2023-04-30T13:30:02.403Z,99043.31
2023-04-30T13:33:04.516Z,99040.75
2023-04-30T13:36:06.803Z,99035.72
2023-04-30T13:39:08.537Z,99027.66
2023-04-30T13:42:11.378Z,99018.09
2023-04-30T13:45:13.180Z,99022.69
2023-04-30T13:48:14.943Z,99014.94
2023-04-30T13:51:16.535Z,99011.50
2023-04-30T13:54:18.505Z,99012.28
2023-04-30T13:57:21.582Z,99005.66
2023-04-30T14:00:23.490Z,99003.66
2023-04-30T14:03:25.178Z,98991.69
2023-04-30T14:06:29.347Z,98994.22
2023-04-30T14:09:32.146Z,99001.69
2023-04-30T14:12:36.226Z,98993.22
2023-04-30T14:15:39.101Z,98997.69
2023-04-30T14:18:40.780Z,98989.84
2023-04-30T14:21:42.730Z,98994.19
2023-04-30T14:24:52.946Z,98987.72
2023-04-30T14:27:56.232Z,98983.06
2023-04-30T14:30:57.829Z,98993.88
2023-04-30T14:34:00.108Z,98980.00
2023-04-30T14:37:02.730Z,98983.19
2023-04-30T14:40:06.754Z,98970.91
2023-04-30T14:43:10.056Z,98973.09
2023-04-30T14:46:14.906Z,98968.44
2023-04-30T14:49:16.701Z,98971.84
2023-04-30T14:52:18.773Z,98969.00
2023-04-30T14:55:21.090Z,98970.38
2023-04-30T14:58:23.990Z,98966.66
2023-04-30T15:01:28.519Z,98966.72
2023-04-30T15:04:31.067Z,98962.88
2023-04-30T15:07:36.147Z,98954.56
2023-04-30T15:10:37.761Z,98958.13
2023-04-30T15:13:41.565Z,98958.78
2023-04-30T15:16:43.285Z,98956.34
2023-04-30T15:19:45.106Z,98959.84
2023-04-30T15:22:46.925Z,98956.13
2023-04-30T15:25:48.638Z,98956.75
2023-04-30T15:28:52.872Z,98950.59
2023-04-30T15:31:55.887Z,98956.53
2023-04-30T15:34:57.692Z,98947.19
2023-04-30T15:37:59.742Z,98946.00
2023-04-30T15:41:01.828Z,98943.16
2023-04-30T15:44:04.976Z,98941.03
2023-04-30T15:47:07.363Z,98937.97
2023-04-30T15:50:09.484Z,98935.63
2023-04-30T15:53:11.260Z,98943.16
2023-04-30T15:56:13.070Z,98941.34
2023-04-30T15:59:17.725Z,98936.78
2023-04-30T16:02:21.290Z,98934.88
2023-04-30T16:05:23.064Z,98935.25
2023-04-30T16:08:24.963Z,98931.78
2023-04-30T16:11:26.629Z,98930.06
2023-04-30T16:14:29.620Z,98932.16
2023-04-30T16:17:32.772Z,98933.13
2023-04-30T16:20:34.434Z,98918.34
2023-04-30T16:23:36.249Z,98919.47
2023-04-30T16:26:37.821Z,98920.53
2023-04-30T16:29:42.208Z,98922.91
2023-04-30T16:32:44.530Z,98922.13
2023-04-30T16:35:48.466Z,98916.22
2023-04-30T16:38:50.486Z,98919.03
2023-04-30T16:41:52.108Z,98910.78
2023-04-30T16:44:55.221Z,98911.66
2023-04-30T16:47:57.197Z,98917.75
2023-04-30T16:50:58.828Z,98908.06
2023-04-30T16:54:00.601Z,98900.97
2023-04-30T16:57:04.822Z,98905.47
2023-04-30T17:00:11.549Z,98911.09
2023-04-30T17:03:13.423Z,98900.53
2023-04-30T17:06:15.600Z,98903.56
2023-04-30T17:09:17.793Z,98898.00
2023-04-30T17:12:20.130Z,98898.50
2023-04-30T17:15:23.150Z,98890.25
2023-04-30T17:18:24.861Z,98894.44
2023-04-30T17:21:29.360Z,98892.25
2023-04-30T17:24:30.996Z,98890.50
2023-04-30T17:27:32.842Z,98888.91
2023-04-30T17:30:36.211Z,98888.16
2023-04-30T17:33:38.029Z,98892.09
2023-04-30T17:36:39.676Z,98896.91
2023-04-30T17:39:41.741Z,98894.97
2023-04-30T17:42:43.926Z,98886.75
2023-04-30T17:45:52.044Z,98890.06
2023-04-30T17:48:53.783Z,98887.31
2023-04-30T17:51:55.787Z,98882.53
2023-04-30T17:54:57.583Z,98886.47
2023-04-30T17:57:59.538Z,98884.19
2023-04-30T18:01:03.613Z,98884.63
2023-04-30T18:04:07.637Z,98881.59
2023-04-30T18:07:09.500Z,98875.88
2023-04-30T18:10:11.302Z,98876.31
2023-04-30T18:13:12.854Z,98875.81
2023-04-30T18:16:16.051Z,98878.69
2023-04-30T18:19:18.150Z,98874.66
2023-04-30T18:22:19.815Z,98874.25
2023-04-30T18:25:21.987Z,98875.22
2023-04-30T18:28:24.617Z,98863.09
2023-04-30T18:31:28.779Z,98868.78
2023-04-30T18:34:30.512Z,98873.53
2023-04-30T18:37:32.153Z,98876.63
2023-04-30T18:40:34.342Z,98874.31
2023-04-30T18:43:37.522Z,98869.16
2023-04-30T18:46:42.563Z,98875.72
2023-04-30T18:49:44.187Z,98860.91
2023-04-30T18:52:46.065Z,98869.16
2023-04-30T18:55:47.863Z,98861.44
2023-04-30T18:58:49.529Z,98867.91
2023-04-30T19:01:52.532Z,98863.72
2023-04-30T19:04:54.512Z,98868.38
2023-04-30T19:07:56.116Z,98864.19
2023-04-30T19:10:57.767Z,98869.75
2023-04-30T19:13:59.426Z,98869.25
2023-04-30T19:17:02.590Z,98880.19
2023-04-30T19:20:05.539Z,98874.22
2023-04-30T19:23:08.126Z,98873.50
2023-04-30T19:26:09.737Z,98881.72
2023-04-30T19:29:11.499Z,98877.53
2023-04-30T19:32:14.674Z,98878.47
2023-04-30T19:35:16.687Z,98875.00
2023-04-30T19:38:18.782Z,98882.94
2023-04-30T19:41:21.633Z,98882.94
2023-04-30T19:44:23.337Z,98883.88
2023-04-30T19:47:26.444Z,98883.97
2023-04-30T19:50:28.054Z,98882.38
2023-04-30T19:53:30.420Z,98876.16
2023-04-30T19:56:32.208Z,98886.84
2023-04-30T19:59:33.845Z,98871.03
2023-04-30T20:02:37.034Z,98876.47
2023-04-30T20:05:39.458Z,98866.88
2023-04-30T20:08:41.171Z,98871.34
2023-04-30T20:11:42.829Z,98872.44
2023-04-30T20:14:44.490Z,98865.72
2023-04-30T20:17:47.601Z,98871.38
2023-04-30T20:20:49.341Z,98872.47
2023-04-30T20:23:51.254Z,98856.78
2023-04-30T20:26:52.779Z,98856.03
2023-04-30T20:29:54.696Z,98854.50
2023-04-30T20:32:57.970Z,98859.06
2023-04-30T20:35:59.733Z,98866.19
2023-04-30T20:39:01.429Z,98853.84
2023-04-30T20:42:04.023Z,98849.59
2023-04-30T20:45:06.422Z,98844.34
2023-04-30T20:48:09.876Z,98844.41
2023-04-30T20:51:11.504Z,98834.75
2023-04-30T20:54:13.432Z,98836.69
2023-04-30T20:57:15.083Z,98832.38
2023-04-30T21:00:16.870Z,98830.69
2023-04-30T21:03:20.132Z,98833.34
2023-04-30T21:06:22.279Z,98821.09
2023-04-30T21:09:23.928Z,98821.31
2023-04-30T21:12:25.744Z,98819.78
2023-04-30T21:15:27.528Z,98818.94
2023-04-30T21:18:31.288Z,98816.25
2023-04-30T21:21:33.870Z,98814.47
2023-04-30T21:24:35.448Z,98820.03
2023-04-30T21:27:37.110Z,98813.78
2023-04-30T21:30:38.814Z,98816.66
2023-04-30T21:33:42.175Z,98817.59
2023-04-30T21:36:44.047Z,98811.34
2023-04-30T21:39:46.033Z,98808.84
2023-04-30T21:42:47.814Z,98816.78
2023-04-30T21:45:49.887Z,98804.63
2023-04-30T21:49:01.574Z,98802.13
2023-04-30T21:52:08.432Z,98803.31
2023-04-30T21:55:10.040Z,98800.78
2023-04-30T21:58:11.836Z,98794.41
2023-04-30T22:01:13.707Z,98796.16
2023-04-30T22:04:16.938Z,98792.69
2023-04-30T22:07:19.036Z,98791.75
2023-04-30T22:10:20.739Z,98791.81
2023-04-30T22:13:27.696Z,98791.94
2023-04-30T22:16:29.800Z,98787.59
2023-04-30T22:19:32.996Z,98784.81
2023-04-30T22:22:35.309Z,98786.75
2023-04-30T22:25:39.148Z,98793.91
2023-04-30T22:28:42.209Z,98785.13
2023-04-30T22:31:44.855Z,98786.25
2023-04-30T22:34:48.959Z,98775.72
2023-04-30T22:37:50.739Z,98780.25
2023-04-30T22:40:52.354Z,98782.97
2023-04-30T22:43:53.976Z,98783.16
2023-04-30T22:46:58.158Z,98775.56
2023-04-30T22:50:01.967Z,98780.28
2023-04-30T22:53:03.722Z,98776.09
2023-04-30T22:56:08.062Z,98772.56
2023-04-30T22:59:09.701Z,98762.56
2023-04-30T23:02:13.352Z,98772.41
2023-04-30T23:05:17.134Z,98760.84
2023-04-30T23:08:19.286Z,98763.56
2023-04-30T23:11:21.809Z,98769.00
2023-04-30T23:14:23.860Z,98757.63
2023-04-30T23:17:27.318Z,98763.06
2023-04-30T23:20:30.478Z,98757.09
2023-04-30T23:23:32.555Z,98752.69
2023-04-30T23:26:34.140Z,98754.53
2023-04-30T23:29:36.594Z,98753.53
2023-04-30T23:32:38.286Z,98749.13
2023-04-30T23:35:46.039Z,98746.47
2023-04-30T23:38:48.029Z,98753.66
2023-04-30T23:41:49.629Z,98748.47
2023-04-30T23:44:51.186Z,98753.03
2023-04-30T23:47:52.759Z,98751.47
2023-04-30T23:51:02.898Z,98744.66
2023-04-30T23:54:05.846Z,98735.13
2023-04-30T23:57:07.688Z,98746.75
